Time;durP1;ratioP1;P1;durP2;ratioP2;P2;SDS_P1;SDS_P2;PMS_P1;PMS_P2;Temp;Humidity;BMP_temperature;BMP_pressure;BME280_temperature;BME280_humidity;BME280_pressure;Samples;Min_cycle;Max_cycle;Signal;HPM_P1;HPM_P2
2022/07/16 00:03:25;;;;;;;0.00;0.00;;;16.30;99.90;;;;;;5088328;28;20144;-80
2022/07/16 00:05:51;;;;;;;0.00;0.00;;;16.30;99.90;;;;;;5054262;28;20128;-80
2022/07/16 00:08:16;;;;;;;0.00;0.00;;;16.30;99.90;;;;;;5071194;28;20092;-80
2022/07/16 00:10:42;;;;;;;0.00;0.00;;;16.30;99.90;;;;;;5070818;28;20107;-80
2022/07/16 00:13:08;;;;;;;0.10;0.00;;;16.30;99.90;;;;;;5087724;28;20439;-80
2022/07/16 00:15:33;;;;;;;0.00;0.00;;;16.30;99.90;;;;;;5087737;28;20047;-80
2022/07/16 00:20:43;;;;;;;0.00;0.00;;;16.30;99.90;;;;;;5087641;28;20045;-80
2022/07/16 00:23:08;;;;;;;0.00;0.00;;;16.20;99.90;;;;;;5070810;28;20048;-80
2022/07/16 00:25:34;;;;;;;0.00;0.00;;;16.20;99.90;;;;;;5070803;28;20057;-80
2022/07/16 00:28:01;;;;;;;0.00;0.00;;;16.20;99.90;;;;;;5087462;28;20136;-80
2022/07/16 00:30:27;;;;;;;0.00;0.00;;;16.20;99.90;;;;;;5087465;28;20131;-80
2022/07/16 00:32:53;;;;;;;0.00;0.00;;;16.20;99.90;;;;;;5087208;28;20049;-80
2022/07/16 00:35:19;;;;;;;0.00;0.00;;;16.20;99.90;;;;;;5086992;28;20366;-80
2022/07/16 00:37:44;;;;;;;0.65;0.00;;;16.20;99.90;;;;;;5071102;28;20055;-80
2022/07/16 00:40:11;;;;;;;0.00;0.00;;;16.10;99.90;;;;;;5087240;28;20477;-80
2022/07/16 00:42:36;;;;;;;0.25;0.15;;;16.10;99.90;;;;;;5070876;28;20111;-80
2022/07/16 00:45:02;;;;;;;0.00;0.00;;;16.10;99.90;;;;;;5086664;28;20435;-80
2022/07/16 00:47:28;;;;;;;0.00;0.00;;;16.10;99.90;;;;;;5070313;28;20088;-80
2022/07/16 00:49:53;;;;;;;0.00;0.00;;;16.10;99.90;;;;;;5087049;28;20037;-80
2022/07/16 00:52:19;;;;;;;0.00;0.00;;;16.10;99.90;;;;;;5070016;28;20111;-80
2022/07/16 00:54:45;;;;;;;0.00;0.00;;;16.10;99.90;;;;;;5086929;28;20396;-80
2022/07/16 00:57:13;;;;;;;0.00;0.00;;;16.10;99.90;;;;;;5086941;28;20033;-80
2022/07/16 00:59:39;;;;;;;0.00;0.00;;;16.10;99.90;;;;;;5086449;28;20136;-80
2022/07/16 01:02:05;;;;;;;0.00;0.00;;;16.10;99.90;;;;;;5069902;28;20084;-80
2022/07/16 01:04:31;;;;;;;0.00;0.00;;;16.10;99.90;;;;;;5086823;28;20506;-81
2022/07/16 01:06:57;;;;;;;0.00;0.00;;;16.10;99.90;;;;;;5086917;28;20127;-80
2022/07/16 01:09:25;;;;;;;0.00;0.00;;;16.10;99.90;;;;;;5086714;28;20179;-81
2022/07/16 01:11:52;;;;;;;0.00;0.00;;;16.10;99.90;;;;;;5086996;28;20044;-80
2022/07/16 01:14:18;;;;;;;0.00;0.00;;;16.10;99.90;;;;;;5069706;28;20091;-80
2022/07/16 01:16:45;;;;;;;0.00;0.00;;;16.10;99.90;;;;;;5086354;28;20498;-80
2022/07/16 01:19:12;;;;;;;0.00;0.00;;;16.10;99.90;;;;;;5053462;28;20053;-80
2022/07/16 01:21:38;;;;;;;0.03;0.03;;;16.10;99.90;;;;;;5087083;28;20067;-80
2022/07/16 01:24:04;;;;;;;0.00;0.00;;;16.10;99.90;;;;;;5086249;28;20378;-80
2022/07/16 01:26:30;;;;;;;0.00;0.00;;;16.10;99.90;;;;;;5086494;28;20400;-80
2022/07/16 01:28:56;;;;;;;0.00;0.00;;;16.10;99.90;;;;;;5069722;28;20049;-80
2022/07/16 01:31:21;;;;;;;0.00;0.00;;;16.10;99.90;;;;;;5085888;28;20072;-80
2022/07/16 01:34:24;;;;;;;0.00;0.00;;;16.10;99.90;;;;;;5086206;28;20037;-80
2022/07/16 01:36:32;;;;;;;0.00;0.00;;;16.10;99.90;;;;;;5086464;28;20044;-80
2022/07/16 01:38:58;;;;;;;0.00;0.00;;;16.10;99.90;;;;;;5086298;28;20094;-80
2022/07/16 01:41:24;;;;;;;0.00;0.00;;;16.10;99.90;;;;;;5086385;28;20045;-80
2022/07/16 01:43:49;;;;;;;0.00;0.00;;;16.10;99.90;;;;;;5069535;28;20119;-80
2022/07/16 01:46:15;;;;;;;0.00;0.00;;;16.10;99.90;;;;;;5086165;28;20497;-80
2022/07/16 01:48:41;;;;;;;0.10;0.10;;;16.10;99.90;;;;;;5069074;28;20053;-80
2022/07/16 01:51:06;;;;;;;0.00;0.00;;;16.10;99.90;;;;;;5085893;28;20052;-80
2022/07/16 01:53:32;;;;;;;0.00;0.00;;;16.10;99.90;;;;;;5069590;28;20045;-80
2022/07/16 01:55:59;;;;;;;0.00;0.00;;;16.10;99.90;;;;;;5072037;28;20453;-80
2022/07/16 01:58:25;;;;;;;0.00;0.00;;;16.10;99.90;;;;;;5075765;28;20515;-80
2022/07/16 02:00:52;;;;;;;0.00;0.00;;;16.10;99.90;;;;;;5042507;28;20057;-80
2022/07/16 02:03:17;;;;;;;0.00;0.00;;;16.10;99.90;;;;;;5092797;28;20045;-80
2022/07/16 02:05:43;;;;;;;0.55;0.00;;;16.20;99.90;;;;;;5092753;28;20043;-80
2022/07/16 02:08:09;;;;;;;0.00;0.00;;;16.10;99.90;;;;;;5092835;28;20481;-80
2022/07/16 02:10:35;;;;;;;0.00;0.00;;;16.20;99.90;;;;;;5092813;28;20459;-80
2022/07/16 02:13:02;;;;;;;0.00;0.00;;;16.10;99.90;;;;;;5092669;28;20076;-80
2022/07/16 02:15:27;;;;;;;0.00;0.00;;;16.10;99.90;;;;;;5075339;28;20485;-80
2022/07/16 02:17:53;;;;;;;0.00;0.00;;;16.10;99.90;;;;;;5075480;28;20098;-80
2022/07/16 02:20:19;;;;;;;0.00;0.00;;;16.10;99.90;;;;;;5076197;28;20049;-80
2022/07/16 02:22:44;;;;;;;0.00;0.00;;;16.20;99.90;;;;;;5075841;28;20135;-80
2022/07/16 02:25:12;;;;;;;0.10;0.03;;;16.10;99.90;;;;;;5092617;28;20045;-80
2022/07/16 02:28:05;;;;;;;0.00;0.00;;;16.10;99.90;;;;;;5075592;28;20098;-80
2022/07/16 02:30:28;;;;;;;0.00;0.00;;;16.10;99.90;;;;;;5092981;28;20053;-80
2022/07/16 02:32:54;;;;;;;0.00;0.00;;;16.00;99.90;;;;;;5092453;28;20389;-80
2022/07/16 02:35:19;;;;;;;0.00;0.00;;;16.00;99.90;;;;;;5092295;28;20044;-80
2022/07/16 02:37:45;;;;;;;0.00;0.00;;;16.00;99.90;;;;;;5092794;28;20145;-80
2022/07/16 02:40:11;;;;;;;1.13;0.15;;;16.00;99.90;;;;;;5058835;28;20041;-80
2022/07/16 02:42:37;;;;;;;0.00;0.00;;;15.90;99.90;;;;;;5075523;28;20049;-80
2022/07/16 02:45:03;;;;;;;0.00;0.00;;;15.90;99.90;;;;;;5092648;28;20055;-80
2022/07/16 02:47:29;;;;;;;0.00;0.00;;;16.00;99.90;;;;;;5092422;28;20048;-80
2022/07/16 02:49:54;;;;;;;0.00;0.00;;;15.90;99.90;;;;;;5075471;28;20106;-80
2022/07/16 02:52:20;;;;;;;0.43;0.00;;;15.90;99.90;;;;;;5092054;28;20049;-80
2022/07/16 02:54:46;;;;;;;0.00;0.00;;;15.90;99.90;;;;;;5075149;28;20161;-80
2022/07/16 02:57:12;;;;;;;0.00;0.00;;;15.90;99.90;;;;;;5075302;28;20053;-80
2022/07/16 02:59:37;;;;;;;0.00;0.00;;;15.90;99.90;;;;;;5075972;28;20067;-80
2022/07/16 03:02:03;;;;;;;0.00;0.00;;;15.90;99.90;;;;;;5092588;28;20088;-80
2022/07/16 03:04:28;;;;;;;0.00;0.00;;;15.90;99.90;;;;;;5075899;28;20059;-79
2022/07/16 03:06:54;;;;;;;0.00;0.00;;;15.90;99.90;;;;;;5057622;28;20095;-80
2022/07/16 03:09:20;;;;;;;0.00;0.00;;;15.90;99.90;;;;;;5088674;28;20428;-80
2022/07/16 03:11:45;;;;;;;0.00;0.00;;;15.90;99.90;;;;;;5072248;28;20561;-80
2022/07/16 03:14:11;;;;;;;0.00;0.00;;;15.80;99.90;;;;;;5088840;28;20072;-80
2022/07/16 03:16:37;;;;;;;0.00;0.00;;;15.80;99.90;;;;;;5089105;28;20049;-80
2022/07/16 03:19:02;;;;;;;0.00;0.00;;;15.70;99.90;;;;;;5071859;28;20417;-80
2022/07/16 03:21:28;;;;;;;0.00;0.00;;;15.70;99.90;;;;;;5071930;28;20056;-80
2022/07/16 03:23:53;;;;;;;0.00;0.00;;;15.60;99.90;;;;;;5071678;28;20071;-80
2022/07/16 03:26:19;;;;;;;0.00;0.00;;;15.60;99.90;;;;;;5088832;28;20041;-80
2022/07/16 03:28:45;;;;;;;0.00;0.00;;;15.50;99.90;;;;;;5072017;28;20481;-80
2022/07/16 03:31:10;;;;;;;0.00;0.00;;;15.50;99.90;;;;;;5070881;28;20512;-80
2022/07/16 03:33:36;;;;;;;0.00;0.00;;;15.40;99.90;;;;;;5086907;28;20500;-80
2022/07/16 03:36:02;;;;;;;0.00;0.00;;;15.40;99.90;;;;;;5087204;28;20481;-80
2022/07/16 03:41:13;;;;;;;0.00;0.00;;;15.40;99.90;;;;;;5016232;28;20049;-80
2022/07/16 03:43:39;;;;;;;0.00;0.00;;;15.40;99.90;;;;;;5016285;28;20049;-80
2022/07/16 03:46:05;;;;;;;0.00;0.00;;;15.40;99.90;;;;;;5032693;28;20053;-79
2022/07/16 03:48:30;;;;;;;0.00;0.00;;;15.40;99.90;;;;;;5016206;28;20593;-80
2022/07/16 03:50:56;;;;;;;0.00;0.00;;;15.40;99.90;;;;;;5017053;28;20060;-80
2022/07/16 03:53:21;;;;;;;0.43;0.10;;;15.40;99.90;;;;;;5017177;28;20045;-80
2022/07/16 03:55:47;;;;;;;0.00;0.00;;;15.40;99.90;;;;;;5033482;28;20057;-80
2022/07/16 03:58:13;;;;;;;0.00;0.00;;;15.40;99.90;;;;;;5033480;28;20059;-80
2022/07/16 04:00:38;;;;;;;0.00;0.00;;;15.40;99.90;;;;;;5016800;28;20041;-80
2022/07/16 04:03:04;;;;;;;0.00;0.00;;;15.50;99.90;;;;;;5033164;28;20065;-80
2022/07/16 04:05:30;;;;;;;0.00;0.00;;;15.40;99.90;;;;;;5016965;28;20053;-80
2022/07/16 04:07:55;;;;;;;0.00;0.00;;;15.40;99.90;;;;;;5033513;28;20053;-80
2022/07/16 04:10:21;;;;;;;0.00;0.00;;;15.40;99.90;;;;;;5016812;28;20366;-80
2022/07/16 04:12:46;;;;;;;0.00;0.00;;;15.40;99.90;;;;;;5032996;28;20060;-80
2022/07/16 04:15:12;;;;;;;0.00;0.00;;;15.40;99.90;;;;;;5016462;28;20076;-80
2022/07/16 04:17:37;;;;;;;0.00;0.00;;;15.30;99.90;;;;;;5039046;28;20057;-80
2022/07/16 04:20:04;;;;;;;0.00;0.00;;;15.40;99.90;;;;;;5086525;28;20045;-80
2022/07/16 04:22:30;;;;;;;0.00;0.00;;;15.30;99.90;;;;;;5070658;28;20040;-80
2022/07/16 04:24:56;;;;;;;0.00;0.00;;;15.30;99.90;;;;;;5087099;28;20040;-80
2022/07/16 04:27:21;;;;;;;0.00;0.00;;;15.30;99.90;;;;;;5070742;28;20053;-80
2022/07/16 04:29:47;;;;;;;0.00;0.00;;;15.20;99.90;;;;;;5087578;28;20087;-80
2022/07/16 04:32:12;;;;;;;0.00;0.00;;;15.20;99.90;;;;;;5070701;28;20145;-80
2022/07/16 04:34:38;;;;;;;0.00;0.00;;;15.20;99.90;;;;;;5086884;28;20056;-80
2022/07/16 04:37:04;;;;;;;0.00;0.00;;;15.10;99.90;;;;;;5070503;28;20057;-81
2022/07/16 04:39:29;;;;;;;0.00;0.00;;;15.20;99.90;;;;;;5087309;28;20040;-81
2022/07/16 04:41:55;;;;;;;0.00;0.00;;;15.20;99.90;;;;;;5053886;28;20043;-81
2022/07/16 04:44:21;;;;;;;0.43;0.30;;;15.20;99.90;;;;;;5070294;28;20041;-80
2022/07/16 04:46:46;;;;;;;0.00;0.00;;;15.10;99.90;;;;;;5087139;28;20489;-81
2022/07/16 04:49:12;;;;;;;0.00;0.00;;;15.10;99.90;;;;;;5069946;28;20057;-81
2022/07/16 04:51:37;;;;;;;0.00;0.00;;;15.20;99.90;;;;;;5069785;28;20056;-81
2022/07/16 04:54:03;;;;;;;0.00;0.00;;;15.20;99.90;;;;;;5070223;28;20047;-81
2022/07/16 04:56:29;;;;;;;0.00;0.00;;;15.30;99.90;;;;;;5070170;28;20061;-80
2022/07/16 04:58:54;;;;;;;0.00;0.00;;;15.30;99.90;;;;;;5070097;28;20060;-81
2022/07/16 05:01:20;;;;;;;0.00;0.00;;;15.30;99.90;;;;;;5086688;28;20124;-80
2022/07/16 05:03:45;;;;;;;1.10;0.43;;;15.30;99.90;;;;;;5086945;28;20075;-80
2022/07/16 05:06:11;;;;;;;0.00;0.00;;;15.30;99.90;;;;;;5086624;28;20480;-81
2022/07/16 05:08:37;;;;;;;0.00;0.00;;;15.20;99.90;;;;;;5086548;28;20094;-80
2022/07/16 05:11:02;;;;;;;0.05;0.00;;;15.20;99.90;;;;;;5086799;28;20155;-81
2022/07/16 05:13:28;;;;;;;0.00;0.00;;;15.20;99.90;;;;;;5086756;28;20057;-81
2022/07/16 05:15:53;;;;;;;0.00;0.00;;;15.20;99.90;;;;;;5069975;28;20052;-80
2022/07/16 05:18:19;;;;;;;0.00;0.00;;;15.20;99.90;;;;;;5086630;28;20136;-80
2022/07/16 05:20:45;;;;;;;0.00;0.00;;;15.30;99.90;;;;;;5086563;28;20440;-80
2022/07/16 05:23:11;;;;;;;0.47;0.00;;;15.30;99.90;;;;;;5070042;28;20060;-80
2022/07/16 05:25:36;;;;;;;0.05;0.05;;;15.30;99.90;;;;;;5086500;28;20389;-80
2022/07/16 05:28:02;;;;;;;0.00;0.00;;;15.30;99.90;;;;;;5069586;28;20041;-80
2022/07/16 05:30:28;;;;;;;0.10;0.10;;;15.30;99.90;;;;;;5069246;28;20072;-80
2022/07/16 05:32:54;;;;;;;0.00;0.00;;;15.30;99.90;;;;;;5086177;28;20040;-80
2022/07/16 05:35:20;;;;;;;0.00;0.00;;;15.30;99.90;;;;;;5086454;28;20048;-80
2022/07/16 05:37:46;;;;;;;0.65;0.47;;;15.30;99.90;;;;;;5070245;28;20056;-80
2022/07/16 05:40:13;;;;;;;0.00;0.00;;;15.40;99.90;;;;;;5086300;28;20049;-80
2022/07/16 05:42:39;;;;;;;0.00;0.00;;;15.40;99.90;;;;;;5069420;28;20049;-80
2022/07/16 05:45:05;;;;;;;0.00;0.00;;;15.50;99.90;;;;;;5069294;28;20127;-80
2022/07/16 05:47:34;;;;;;;0.00;0.00;;;15.50;99.90;;;;;;5069246;28;20065;-81
2022/07/16 05:50:04;;;;;;;0.00;0.00;;;15.60;99.90;;;;;;5086176;28;20143;-80
2022/07/16 05:52:29;;;;;;;0.00;0.00;;;15.60;99.90;;;;;;5085885;28;20049;-81
2022/07/16 05:54:55;;;;;;;0.00;0.00;;;15.60;99.90;;;;;;5069423;28;20447;-80
2022/07/16 05:57:21;;;;;;;0.00;0.00;;;15.70;99.90;;;;;;5085661;28;20045;-81
2022/07/16 05:59:46;;;;;;;1.45;0.28;;;15.70;99.90;;;;;;5068455;28;20432;-80
2022/07/16 06:02:12;;;;;;;0.00;0.00;;;15.70;99.90;;;;;;5086056;28;20053;-80
2022/07/16 06:04:37;;;;;;;1.20;0.45;;;15.80;99.90;;;;;;5036161;28;20041;-80
2022/07/16 06:07:03;;;;;;;0.00;0.00;;;15.80;99.90;;;;;;5085969;28;20064;-80
2022/07/16 06:09:29;;;;;;;0.20;0.20;;;15.80;99.90;;;;;;5085954;28;20045;-80
2022/07/16 06:11:54;;;;;;;0.00;0.00;;;15.80;99.90;;;;;;5068780;28;20060;-80
2022/07/16 06:14:20;;;;;;;0.17;0.05;;;15.90;99.90;;;;;;5085772;28;20048;-80
2022/07/16 06:16:46;;;;;;;0.38;0.20;;;15.90;99.90;;;;;;5085945;28;20048;-80
2022/07/16 06:19:11;;;;;;;0.00;0.00;;;15.90;99.90;;;;;;5085776;28;20431;-79
2022/07/16 06:21:37;;;;;;;0.10;0.00;;;15.90;99.90;;;;;;5069176;28;20066;-79
2022/07/16 06:24:03;;;;;;;0.00;0.00;;;15.90;99.90;;;;;;5069351;28;20051;-79
2022/07/16 06:26:29;;;;;;;0.00;0.00;;;15.90;99.90;;;;;;5085867;28;20045;-79
2022/07/16 06:28:55;;;;;;;0.13;0.13;;;16.00;99.90;;;;;;5069083;28;20045;-79
2022/07/16 06:31:20;;;;;;;0.73;0.13;;;16.00;99.90;;;;;;5085667;28;20045;-79
2022/07/16 06:33:46;;;;;;;0.00;0.00;;;16.00;99.90;;;;;;5069845;28;20140;-79
2022/07/16 06:36:11;;;;;;;0.43;0.20;;;16.10;99.90;;;;;;5085691;28;20040;-79
2022/07/16 06:38:37;;;;;;;0.45;0.17;;;16.10;99.90;;;;;;5085562;28;20056;-79
2022/07/16 06:41:03;;;;;;;0.13;0.13;;;16.10;99.90;;;;;;5068907;28;20097;-79
2022/07/16 06:43:29;;;;;;;0.00;0.00;;;16.10;99.90;;;;;;5087942;28;20136;-79
2022/07/16 06:45:54;;;;;;;0.03;0.03;;;16.10;99.90;;;;;;5089427;28;20095;-79
2022/07/16 06:48:20;;;;;;;0.00;0.00;;;16.20;99.90;;;;;;5072844;28;20088;-80
2022/07/16 06:50:46;;;;;;;0.00;0.00;;;16.20;99.90;;;;;;5072750;28;20057;-79
2022/07/16 06:53:11;;;;;;;0.00;0.00;;;16.30;99.90;;;;;;5072168;28;20111;-80
2022/07/16 06:55:37;;;;;;;0.43;0.43;;;16.30;99.90;;;;;;5071939;28;20049;-80
2022/07/16 06:58:03;;;;;;;0.00;0.00;;;16.40;99.90;;;;;;5071400;28;20049;-80
2022/07/16 07:00:28;;;;;;;0.00;0.00;;;16.50;99.90;;;;;;5072520;28;20521;-79
2022/07/16 07:02:54;;;;;;;0.10;0.00;;;16.50;99.90;;;;;;5089146;28;20135;-89
2022/07/16 07:05:20;;;;;;;0.00;0.00;;;16.50;99.90;;;;;;5072242;28;20092;-79
2022/07/16 07:07:46;;;;;;;0.00;0.00;;;16.60;99.90;;;;;;5089550;28;20472;-79
2022/07/16 07:10:11;;;;;;;0.20;0.20;;;16.60;99.90;;;;;;5072127;28;20404;-79
2022/07/16 07:12:37;;;;;;;0.00;0.00;;;16.70;99.90;;;;;;5072177;28;20041;-79
2022/07/16 07:15:04;;;;;;;1.10;0.47;;;16.90;99.90;;;;;;5088835;28;20049;-80
2022/07/16 07:17:30;;;;;;;0.10;0.10;;;16.90;99.90;;;;;;5072519;28;20052;-80
2022/07/16 07:19:56;;;;;;;0.00;0.00;;;17.00;99.90;;;;;;5088927;28;20556;-80
2022/07/16 07:22:22;;;;;;;2.17;0.63;;;17.00;99.90;;;;;;5055244;28;20084;-79
2022/07/16 07:24:48;;;;;;;0.00;0.00;;;16.90;99.90;;;;;;5072172;28;20132;-80
2022/07/16 07:27:18;;;;;;;0.15;0.00;;;17.00;99.90;;;;;;5088855;28;20110;-80
2022/07/16 07:29:44;;;;;;;0.00;0.00;;;17.00;99.90;;;;;;5088873;28;20057;-80
2022/07/16 07:32:10;;;;;;;0.00;0.00;;;17.10;99.90;;;;;;5088468;28;20054;-79
2022/07/16 07:34:35;;;;;;;0.00;0.00;;;17.30;99.90;;;;;;5088559;28;20052;-80
2022/07/16 07:37:01;;;;;;;0.00;0.00;;;17.50;99.90;;;;;;5055262;28;20080;-80
2022/07/16 07:39:27;;;;;;;0.00;0.00;;;17.60;99.90;;;;;;5071816;28;20048;-80
2022/07/16 07:41:52;;;;;;;0.10;0.10;;;17.60;99.90;;;;;;5071688;28;20045;-80
2022/07/16 07:44:18;;;;;;;0.00;0.00;;;17.50;99.90;;;;;;5088420;28;20067;-80
2022/07/16 07:46:43;;;;;;;0.00;0.00;;;17.30;99.90;;;;;;5071766;28;20048;-80
2022/07/16 07:49:11;;;;;;;0.00;0.00;;;17.20;99.90;;;;;;5088463;28;20542;-79
2022/07/16 07:51:37;;;;;;;0.00;0.00;;;17.20;99.90;;;;;;5088242;28;20182;-80
2022/07/16 07:54:02;;;;;;;0.00;0.00;;;17.20;99.90;;;;;;5087752;28;20511;-80
2022/07/16 07:56:28;;;;;;;0.08;0.08;;;17.20;99.90;;;;;;5088080;28;20045;-80
2022/07/16 07:58:54;;;;;;;0.00;0.00;;;17.30;99.90;;;;;;5070952;28;20126;-80
2022/07/16 08:01:19;;;;;;;0.00;0.00;;;17.30;99.90;;;;;;5088943;28;20098;-80
2022/07/16 08:03:45;;;;;;;0.00;0.00;;;17.40;99.90;;;;;;5071564;28;20045;-80
2022/07/16 08:06:11;;;;;;;0.00;0.00;;;17.50;99.90;;;;;;5071507;28;20099;-80
2022/07/16 08:08:36;;;;;;;0.45;0.22;;;17.50;99.90;;;;;;5088243;28;20512;-80
2022/07/16 08:11:02;;;;;;;0.00;0.00;;;17.40;99.90;;;;;;5079909;28;20052;-80
2022/07/16 08:13:28;;;;;;;0.00;0.00;;;17.40;99.90;;;;;;5054168;28;20059;-80
2022/07/16 08:15:53;;;;;;;0.00;0.00;;;17.30;99.90;;;;;;5054170;28;20087;-80
2022/07/16 08:18:19;;;;;;;0.00;0.00;;;17.50;99.90;;;;;;5054734;28;20045;-79
2022/07/16 08:20:45;;;;;;;0.00;0.00;;;17.50;99.90;;;;;;5037875;28;20428;-80
2022/07/16 08:23:10;;;;;;;0.75;0.20;;;17.60;99.90;;;;;;5054586;28;20098;-80
2022/07/16 08:25:45;;;;;;;0.00;0.00;;;17.60;99.60;;;;;;5054164;28;20473;-79
2022/07/16 08:28:12;;;;;;;0.15;0.15;;;17.80;99.90;;;;;;5037483;28;20048;-80
2022/07/16 08:30:38;;;;;;;0.00;0.00;;;17.90;99.00;;;;;;5037613;28;20061;-80
2022/07/16 08:33:03;;;;;;;0.00;0.00;;;17.90;99.20;;;;;;5037280;28;20074;-80
2022/07/16 08:35:29;;;;;;;0.57;0.38;;;17.80;97.70;;;;;;5053753;28;20052;-80
2022/07/16 08:37:55;;;;;;;0.00;0.00;;;17.70;98.20;;;;;;5037443;28;20049;-80
2022/07/16 08:40:22;;;;;;;0.00;0.00;;;17.60;98.20;;;;;;5037528;28;20539;-80
2022/07/16 08:42:49;;;;;;;0.00;0.00;;;17.60;98.40;;;;;;5037240;28;20468;-79
2022/07/16 08:45:16;;;;;;;0.00;0.00;;;17.90;98.80;;;;;;5054478;28;20485;-80
2022/07/16 08:47:42;;;;;;;0.00;0.00;;;18.20;97.60;;;;;;5054353;28;20103;-80
2022/07/16 08:50:11;;;;;;;0.00;0.00;;;18.60;98.40;;;;;;5053792;28;20424;-80
2022/07/16 08:52:47;;;;;;;0.00;0.00;;;18.60;96.60;;;;;;5053401;28;20048;-80
2022/07/16 08:55:13;;;;;;;0.00;0.00;;;18.50;96.80;;;;;;5036844;28;20037;-80
2022/07/16 08:57:39;;;;;;;0.00;0.00;;;18.40;96.40;;;;;;5053734;28;20094;-80
2022/07/16 09:00:13;;;;;;;0.38;0.30;;;18.30;96.60;;;;;;5037441;28;20068;-80
2022/07/16 09:02:39;;;;;;;0.00;0.00;;;18.60;98.10;;;;;;5053725;28;20048;-80
2022/07/16 09:05:06;;;;;;;0.00;0.00;;;18.70;96.50;;;;;;5052981;28;20504;-80
2022/07/16 09:07:32;;;;;;;0.00;0.00;;;18.70;95.80;;;;;;5053478;28;20366;-80
2022/07/16 09:09:57;;;;;;;0.00;0.00;;;18.70;96.80;;;;;;5036720;28;20052;-80
2022/07/16 09:12:37;;;;;;;0.10;0.10;;;18.60;96.20;;;;;;5053111;28;20064;-80
2022/07/16 09:15:38;;;;;;;0.00;0.00;;;18.50;94.20;;;;;;5037031;28;20397;-80
2022/07/16 09:18:12;;;;;;;0.00;0.00;;;18.50;94.00;;;;;;5036719;28;20088;-80
2022/07/16 09:20:50;;;;;;;0.00;0.00;;;18.70;94.90;;;;;;5036404;28;20063;-79
2022/07/16 09:23:23;;;;;;;0.00;0.00;;;18.90;97.00;;;;;;5053598;28;20080;-79
2022/07/16 09:25:53;;;;;;;0.00;0.00;;;19.30;98.10;;;;;;5036574;28;20053;-80
2022/07/16 09:28:20;;;;;;;0.00;0.00;;;19.30;94.00;;;;;;5052917;28;20041;-80
2022/07/16 09:30:46;;;;;;;0.00;0.00;;;19.50;95.10;;;;;;5036073;28;20148;-80
2022/07/16 09:33:20;;;;;;;0.00;0.00;;;19.60;94.40;;;;;;5036210;28;20144;-80
2022/07/16 09:35:47;;;;;;;0.00;0.00;;;19.60;94.80;;;;;;5036487;28;20132;-80
2022/07/16 09:38:14;;;;;;;0.00;0.00;;;19.40;93.70;;;;;;5052759;28;20040;-80
2022/07/16 09:40:47;;;;;;;0.00;0.00;;;19.20;93.80;;;;;;5036161;28;20392;-80
2022/07/16 09:43:13;;;;;;;0.10;0.10;;;19.20;95.50;;;;;;5052783;28;20477;-80
2022/07/16 09:45:40;;;;;;;0.00;0.00;;;19.40;96.00;;;;;;5036274;28;20041;-80
2022/07/16 09:48:26;;;;;;;0.00;0.00;;;19.50;93.10;;;;;;5053293;28;20106;-80
2022/07/16 09:50:53;;;;;;;0.00;0.00;;;19.80;95.20;;;;;;5052742;28;20052;-80
2022/07/16 09:53:22;;;;;;;1.98;0.47;;;20.10;94.30;;;;;;5052800;28;20144;-80
2022/07/16 09:56:04;;;;;;;0.00;0.00;;;20.30;92.20;;;;;;5036178;28;20083;-80
2022/07/16 09:58:31;;;;;;;0.28;0.20;;;20.30;92.10;;;;;;5052531;28;20049;-80
2022/07/16 10:00:58;;;;;;;0.00;0.00;;;20.20;91.90;;;;;;5035602;28;20056;-80
2022/07/16 10:03:24;;;;;;;0.00;0.00;;;20.30;91.90;;;;;;5065934;28;20038;-80
2022/07/16 10:05:50;;;;;;;0.00;0.00;;;20.30;92.40;;;;;;5066025;28;20057;-80
2022/07/16 10:08:16;;;;;;;0.00;0.00;;;20.30;88.80;;;;;;5032545;28;20056;-80
2022/07/16 10:10:43;;;;;;;0.00;0.00;;;20.20;89.90;;;;;;5049189;28;20107;-80
2022/07/16 10:13:10;;;;;;;0.00;0.00;;;20.10;90.00;;;;;;5049102;28;20053;-80
2022/07/16 10:15:37;;;;;;;0.00;0.00;;;19.90;91.80;;;;;;5065749;28;20052;-80
2022/07/16 10:18:04;;;;;;;0.00;0.00;;;19.90;91.80;;;;;;5069059;28;20037;-80
2022/07/16 10:20:35;;;;;;;0.00;0.00;;;20.20;92.00;;;;;;5035976;28;20088;-80
2022/07/16 10:23:05;;;;;;;0.00;0.00;;;20.50;90.80;;;;;;5069927;28;20045;-80
2022/07/16 10:25:35;;;;;;;0.00;0.00;;;20.60;89.80;;;;;;5069715;28;20397;-80
2022/07/16 10:28:01;;;;;;;0.00;0.00;;;20.50;88.00;;;;;;5052691;28;20058;-80
2022/07/16 10:30:30;;;;;;;0.00;0.00;;;20.30;85.80;;;;;;5068954;28;20132;-80
2022/07/16 10:32:59;;;;;;;0.00;0.00;;;20.30;87.30;;;;;;5053172;28;20067;-80
2022/07/16 10:35:28;;;;;;;0.00;0.00;;;20.30;88.10;;;;;;5036001;28;20041;-80
2022/07/16 10:38:23;;;;;;;0.00;0.00;;;20.40;88.30;;;;;;5036106;28;20064;-78
2022/07/16 10:41:09;;;;;;;0.00;0.00;;;20.60;90.90;;;;;;5019518;28;20064;-78
2022/07/16 10:43:36;;;;;;;0.10;0.00;;;21.00;91.40;;;;;;5035751;28;20118;-79
2022/07/16 10:46:04;;;;;;;0.00;0.00;;;21.30;89.00;;;;;;5052785;28;20054;-79
2022/07/16 10:48:50;;;;;;;0.00;0.00;;;21.20;85.80;;;;;;5069205;28;20049;-79
2022/07/16 10:51:17;;;;;;;0.00;0.00;;;21.10;91.30;;;;;;5019792;28;20149;-79
2022/07/16 10:54:01;;;;;;;0.00;0.00;;;20.90;90.00;;;;;;5035911;28;20119;-79
2022/07/16 10:56:33;;;;;;;0.00;0.00;;;20.70;91.80;;;;;;5036130;28;20183;-79
2022/07/16 10:58:58;;;;;;;0.00;0.00;;;20.40;91.60;;;;;;5035815;28;20095;-79
2022/07/16 11:01:25;;;;;;;0.00;0.00;;;20.30;92.40;;;;;;5052477;28;20037;-79
2022/07/16 11:03:51;;;;;;;0.20;0.10;;;20.20;92.70;;;;;;5035618;28;20559;-79
2022/07/16 11:06:20;;;;;;;0.00;0.00;;;20.00;91.90;;;;;;5035604;28;20067;-79
2022/07/16 11:08:46;;;;;;;0.00;0.00;;;20.10;93.20;;;;;;5052285;28;20083;-79
2022/07/16 11:11:13;;;;;;;0.00;0.00;;;20.50;91.60;;;;;;5068923;28;20389;-79
2022/07/16 11:13:40;;;;;;;0.70;0.20;;;20.90;92.10;;;;;;5035430;28;20057;-79
2022/07/16 11:16:10;;;;;;;1.67;0.30;;;21.10;92.00;;;;;;5035555;28;20489;-79
2022/07/16 11:18:36;;;;;;;0.00;0.00;;;21.40;90.30;;;;;;5051938;28;20054;-78
2022/07/16 11:21:09;;;;;;;0.08;0.08;;;21.70;90.60;;;;;;5068622;28;20045;-79
2022/07/16 11:23:52;;;;;;;0.00;0.00;;;21.40;87.00;;;;;;5035351;28;20042;-78
2022/07/16 11:26:21;;;;;;;2.20;0.38;;;21.10;83.40;;;;;;5068543;28;20060;-81
2022/07/16 11:28:55;;;;;;;8.20;0.43;;;20.80;84.60;;;;;;5068061;28;20053;-81
2022/07/16 11:31:25;;;;;;;0.00;0.00;;;20.60;84.20;;;;;;5035331;28;20052;-80
2022/07/16 11:33:56;;;;;;;0.00;0.00;;;20.90;88.90;;;;;;5069152;28;20041;-80
2022/07/16 11:36:31;;;;;;;0.00;0.00;;;21.10;87.10;;;;;;5052208;28;20050;-80
2022/07/16 11:38:57;;;;;;;0.00;0.00;;;21.40;84.00;;;;;;5068602;28;20511;-80
2022/07/16 11:41:23;;;;;;;0.30;0.10;;;21.60;80.20;;;;;;5051519;28;20080;-80
2022/07/16 11:43:49;;;;;;;0.00;0.00;;;21.80;81.70;;;;;;5035030;28;20481;-80
2022/07/16 11:46:40;;;;;;;0.10;0.00;;;22.10;88.20;;;;;;5051143;28;20049;-80
2022/07/16 11:49:06;;;;;;;0.00;0.00;;;22.50;84.50;;;;;;5018410;28;20049;-80
2022/07/16 11:51:32;;;;;;;0.00;0.00;;;22.80;84.00;;;;;;5034712;28;20555;-80
2022/07/16 11:53:58;;;;;;;0.00;0.00;;;22.70;79.50;;;;;;5051657;28;20508;-80
2022/07/16 11:56:35;;;;;;;4.47;0.47;;;22.40;76.50;;;;;;5051291;28;20084;-80
2022/07/16 11:59:03;;;;;;;0.00;0.00;;;22.00;76.60;;;;;;5067952;28;20053;-83
2022/07/16 12:01:35;;;;;;;0.00;0.00;;;21.60;76.60;;;;;;5067346;28;20099;-80
2022/07/16 12:04:00;;;;;;;0.00;0.00;;;21.50;79.50;;;;;;5051300;28;20043;-80
2022/07/16 12:06:26;;;;;;;0.17;0.17;;;21.70;82.70;;;;;;5051097;28;20065;-80
2022/07/16 12:08:56;;;;;;;0.00;0.00;;;21.90;77.80;;;;;;5034616;28;20132;-80
2022/07/16 12:11:33;;;;;;;0.00;0.00;;;21.80;78.10;;;;;;5051091;28;20063;-80
2022/07/16 12:14:00;;;;;;;0.00;0.00;;;21.60;76.80;;;;;;5051020;28;20076;-80
2022/07/16 12:16:26;;;;;;;0.00;0.00;;;21.40;77.80;;;;;;5050483;28;20061;-80
2022/07/16 12:19:06;;;;;;;0.00;0.00;;;21.60;83.90;;;;;;5034369;28;20049;-80
2022/07/16 12:21:37;;;;;;;0.00;0.00;;;21.90;79.10;;;;;;5050475;28;20093;-80
2022/07/16 12:24:03;;;;;;;0.25;0.20;;;22.00;77.50;;;;;;5034282;28;20050;-80
2022/07/16 12:26:31;;;;;;;0.25;0.25;;;22.30;77.20;;;;;;5034244;28;20111;-80
2022/07/16 12:28:57;;;;;;;0.00;0.00;;;22.50;74.10;;;;;;5050912;28;20037;-80
2022/07/16 12:31:26;;;;;;;0.00;0.00;;;22.60;77.90;;;;;;5050520;28;20061;-80
2022/07/16 12:33:53;;;;;;;0.00;0.00;;;22.70;79.00;;;;;;5050749;28;20045;-81
2022/07/16 12:36:19;;;;;;;0.00;0.00;;;22.80;78.70;;;;;;5067963;28;20045;-81
2022/07/16 12:38:51;;;;;;;1.20;0.25;;;22.80;72.70;;;;;;5034612;28;20541;-80
2022/07/16 12:41:45;;;;;;;0.00;0.00;;;22.50;75.10;;;;;;5032756;28;20046;-80
2022/07/16 12:44:14;;;;;;;0.10;0.10;;;22.20;77.20;;;;;;5033517;28;20139;-81
2022/07/16 12:46:46;;;;;;;0.00;0.00;;;22.10;80.40;;;;;;5033655;28;20136;-81
2022/07/16 12:49:17;;;;;;;0.00;0.00;;;22.20;78.10;;;;;;5050370;28;20053;-81
2022/07/16 12:51:49;;;;;;;0.00;0.00;;;22.60;81.50;;;;;;5066648;28;20068;-81
2022/07/16 12:54:16;;;;;;;0.00;0.00;;;22.90;78.20;;;;;;5033541;28;20041;-80
2022/07/16 12:59:43;;;;;;;0.00;0.00;;;23.30;77.80;;;;;;4996372;28;20054;-80